sensor_id;sensor_type;location;lat;lon;timestamp;pressure;altitude;pressure_sealevel;temperature;humidity
47330;BME280;33060;50.178;7.570;2023-02-12T00:00:51;99039.28;;;3.41;100.00
47330;BME280;33060;50.178;7.570;2023-02-12T00:03:18;99037.47;;;3.49;100.00
47330;BME280;33060;50.178;7.570;2023-02-12T00:05:45;99031.31;;;3.56;100.00
47330;BME280;33060;50.178;7.570;2023-02-12T00:08:11;99024.28;;;3.61;100.00
47330;BME280;33060;50.178;7.570;2023-02-12T00:10:40;99019.19;;;3.51;100.00
47330;BME280;33060;50.178;7.570;2023-02-12T00:13:11;99034.16;;;3.29;100.00
47330;BME280;33060;50.178;7.570;2023-02-12T00:15:41;99033.38;;;3.22;100.00
47330;BME280;33060;50.178;7.570;2023-02-12T00:18:09;99028.09;;;3.28;100.00
47330;BME280;33060;50.178;7.570;2023-02-12T00:20:37;99028.06;;;3.33;100.00
47330;BME280;33060;50.178;7.570;2023-02-12T00:23:04;99030.63;;;3.39;100.00
47330;BME280;33060;50.178;7.570;2023-02-12T00:25:32;99026.22;;;3.43;100.00
47330;BME280;33060;50.178;7.570;2023-02-12T00:27:59;99025.28;;;3.47;100.00
47330;BME280;33060;50.178;7.570;2023-02-12T00:30:25;99020.88;;;3.53;100.00
47330;BME280;33060;50.178;7.570;2023-02-12T00:32:53;99023.47;;;3.58;100.00
47330;BME280;33060;50.178;7.570;2023-02-12T00:35:20;99023.50;;;3.53;100.00
47330;BME280;33060;50.178;7.570;2023-02-12T00:37:48;99028.84;;;3.38;100.00
47330;BME280;33060;50.178;7.570;2023-02-12T00:40:15;99027.94;;;3.45;100.00
47330;BME280;33060;50.178;7.570;2023-02-12T00:42:42;99024.47;;;3.43;100.00
47330;BME280;33060;50.178;7.570;2023-02-12T00:45:08;99031.47;;;3.38;100.00
47330;BME280;33060;50.178;7.570;2023-02-12T00:47:35;99035.69;;;3.51;100.00
47330;BME280;33060;50.178;7.570;2023-02-12T00:50:02;99029.53;;;3.60;100.00
47330;BME280;33060;50.178;7.570;2023-02-12T00:52:28;99027.75;;;3.65;100.00
47330;BME280;33060;50.178;7.570;2023-02-12T00:54:56;99032.94;;;3.66;100.00
47330;BME280;33060;50.178;7.570;2023-02-12T00:57:22;99026.09;;;3.56;100.00
47330;BME280;33060;50.178;7.570;2023-02-12T00:59:49;99034.06;;;3.41;100.00
47330;BME280;33060;50.178;7.570;2023-02-12T01:02:16;99039.41;;;3.27;100.00
47330;BME280;33060;50.178;7.570;2023-02-12T01:04:44;99046.28;;;3.36;100.00
47330;BME280;33060;50.178;7.570;2023-02-12T01:07:11;99044.44;;;3.46;100.00
47330;BME280;33060;50.178;7.570;2023-02-12T01:09:37;99038.31;;;3.51;100.00
47330;BME280;33060;50.178;7.570;2023-02-12T01:12:04;99041.75;;;3.55;100.00
47330;BME280;33060;50.178;7.570;2023-02-12T01:14:31;99038.22;;;3.60;100.00
47330;BME280;33060;50.178;7.570;2023-02-12T01:16:58;99036.41;;;3.67;100.00
47330;BME280;33060;50.178;7.570;2023-02-12T01:19:25;99040.69;;;3.71;100.00
47330;BME280;33060;50.178;7.570;2023-02-12T01:21:51;99044.38;;;3.53;100.00
47330;BME280;33060;50.178;7.570;2023-02-12T01:24:18;99046.16;;;3.47;100.00
47330;BME280;33060;50.178;7.570;2023-02-12T01:26:44;99047.84;;;3.52;100.00
47330;BME280;33060;50.178;7.570;2023-02-12T01:29:11;99043.47;;;3.57;100.00
47330;BME280;33060;50.178;7.570;2023-02-12T01:31:38;99043.44;;;3.60;100.00
47330;BME280;33060;50.178;7.570;2023-02-12T01:34:06;99039.91;;;3.63;100.00
47330;BME280;33060;50.178;7.570;2023-02-12T01:36:33;99036.44;;;3.62;100.00
47330;BME280;33060;50.178;7.570;2023-02-12T01:39:01;99039.03;;;3.64;100.00
47330;BME280;33060;50.178;7.570;2023-02-12T01:41:34;99039.03;;;3.64;100.00
47330;BME280;33060;50.178;7.570;2023-02-12T01:44:19;99044.25;;;3.67;100.00
47330;BME280;33060;50.178;7.570;2023-02-12T01:46:55;99040.69;;;3.71;100.00
47330;BME280;33060;50.178;7.570;2023-02-12T01:49:27;99049.34;;;3.78;100.00
47330;BME280;33060;50.178;7.570;2023-02-12T01:54:39;99028.31;;;3.91;100.00
47330;BME280;33060;50.178;7.570;2023-02-12T01:57:07;99029.25;;;3.84;100.00
47330;BME280;33060;50.178;7.570;2023-02-12T01:59:36;99025.09;;;3.68;100.00
47330;BME280;33060;50.178;7.570;2023-02-12T02:02:04;99023.47;;;3.58;100.00
47330;BME280;33060;50.178;7.570;2023-02-12T02:04:45;99020.00;;;3.54;100.00
47330;BME280;33060;50.178;7.570;2023-02-12T02:07:13;99023.50;;;3.52;100.00
47330;BME280;33060;50.178;7.570;2023-02-12T02:09:41;99028.59;;;3.64;100.00
47330;BME280;33060;50.178;7.570;2023-02-12T02:12:08;99027.63;;;3.74;100.00
47330;BME280;33060;50.178;7.570;2023-02-12T02:14:58;99021.44;;;3.81;100.00
47330;BME280;33060;50.178;7.570;2023-02-12T02:31:31;99020.63;;;3.78;100.00
47330;BME280;33060;50.178;7.570;2023-02-12T02:34:26;99016.44;;;3.63;100.00
47330;BME280;33060;50.178;7.570;2023-02-12T02:37:13;99011.16;;;3.69;100.00
47330;BME280;33060;50.178;7.570;2023-02-12T02:39:51;99018.91;;;3.75;100.00
47330;BME280;33060;50.178;7.570;2023-02-12T02:42:32;99011.88;;;3.80;100.00
47330;BME280;33060;50.178;7.570;2023-02-12T02:47:56;99025.69;;;3.90;100.00
47330;BME280;33060;50.178;7.570;2023-02-12T02:50:26;99011.78;;;3.91;100.00
47330;BME280;33060;50.178;7.570;2023-02-12T02:53:07;99014.38;;;3.89;100.00
47330;BME280;33060;50.178;7.570;2023-02-12T02:55:39;99020.47;;;3.91;100.00
47330;BME280;33060;50.178;7.570;2023-02-12T02:58:13;99016.09;;;3.93;100.00
47330;BME280;33060;50.178;7.570;2023-02-12T03:00:46;99009.97;;;3.96;100.00
47330;BME280;33060;50.178;7.570;2023-02-12T03:03:21;99013.63;;;3.83;100.00
47330;BME280;33060;50.178;7.570;2023-02-12T03:05:52;99024.91;;;3.85;100.00
47330;BME280;33060;50.178;7.570;2023-02-12T03:08:32;99010.91;;;3.92;100.00
47330;BME280;33060;50.178;7.570;2023-02-12T03:11:12;99008.22;;;3.96;100.00
47330;BME280;33060;50.178;7.570;2023-02-12T03:16:36;99010.81;;;3.98;100.00
47330;BME280;33060;50.178;7.570;2023-02-12T03:19:11;99015.09;;;4.04;100.00
47330;BME280;33060;50.178;7.570;2023-02-12T03:21:46;99012.47;;;4.05;100.00
47330;BME280;33060;50.178;7.570;2023-02-12T03:24:21;99013.41;;;4.01;100.00
47330;BME280;33060;50.178;7.570;2023-02-12T03:29:27;99009.00;;;4.03;100.00
47330;BME280;33060;50.178;7.570;2023-02-12T03:35:04;99004.69;;;3.99;100.00
47330;BME280;33060;50.178;7.570;2023-02-12T03:40:49;99007.25;;;4.04;100.00
47330;BME280;33060;50.178;7.570;2023-02-12T03:43:27;99004.63;;;4.05;100.00
47330;BME280;33060;50.178;7.570;2023-02-12T03:46:09;99007.22;;;4.07;100.00
47330;BME280;33060;50.178;7.570;2023-02-12T03:48:46;99006.31;;;4.11;100.00
47330;BME280;33060;50.178;7.570;2023-02-12T03:51:28;99008.78;;;4.20;100.00
47330;BME280;33060;50.178;7.570;2023-02-12T03:53:58;99005.22;;;4.25;100.00
47330;BME280;33060;50.178;7.570;2023-02-12T03:59:21;99006.28;;;4.12;100.00
47330;BME280;33060;50.178;7.570;2023-02-12T04:01:51;99011.63;;;4.03;100.00
47330;BME280;33060;50.178;7.570;2023-02-12T04:04:19;99006.44;;;4.00;100.00
47330;BME280;33060;50.178;7.570;2023-02-12T04:06:48;99005.50;;;4.04;100.00
47330;BME280;33060;50.178;7.570;2023-02-12T04:09:16;99008.13;;;4.04;100.00
47330;BME280;33060;50.178;7.570;2023-02-12T04:20:16;99015.88;;;4.12;100.00
47330;BME280;33060;50.178;7.570;2023-02-12T04:33:40;99011.59;;;4.05;100.00
47330;BME280;33060;50.178;7.570;2023-02-12T04:36:15;99016.75;;;4.11;100.00
47330;BME280;33060;50.178;7.570;2023-02-12T04:38:48;99016.63;;;4.20;100.00
47330;BME280;33060;50.178;7.570;2023-02-12T04:41:17;99013.19;;;4.18;100.00
47330;BME280;33060;50.178;7.570;2023-02-12T04:43:44;99016.78;;;4.06;100.00
47330;BME280;33060;50.178;7.570;2023-02-12T04:46:10;99021.13;;;4.10;100.00
47330;BME280;33060;50.178;7.570;2023-02-12T04:48:49;99018.50;;;4.10;100.00
47330;BME280;33060;50.178;7.570;2023-02-12T04:51:17;99022.84;;;4.11;100.00
47330;BME280;33060;50.178;7.570;2023-02-12T04:53:43;99015.03;;;4.10;100.00
47330;BME280;33060;50.178;7.570;2023-02-12T04:56:11;99023.72;;;4.10;100.00
47330;BME280;33060;50.178;7.570;2023-02-12T04:58:39;99030.81;;;3.99;100.00
47330;BME280;33060;50.178;7.570;2023-02-12T05:01:07;99024.72;;;4.00;100.00
47330;BME280;33060;50.178;7.570;2023-02-12T05:03:35;99027.34;;;4.00;100.00
47330;BME280;33060;50.178;7.570;2023-02-12T05:06:03;99031.56;;;4.07;100.00
47330;BME280;33060;50.178;7.570;2023-02-12T05:08:30;99029.81;;;4.08;100.00
47330;BME280;33060;50.178;7.570;2023-02-12T05:11:02;99026.34;;;4.10;100.00
47330;BME280;33060;50.178;7.570;2023-02-12T05:13:29;99026.31;;;4.12;100.00
47330;BME280;33060;50.178;7.570;2023-02-12T05:15:56;99028.91;;;4.13;100.00
47330;BME280;33060;50.178;7.570;2023-02-12T05:18:23;99028.06;;;4.08;100.00
47330;BME280;33060;50.178;7.570;2023-02-12T05:21:01;99029.06;;;4.01;100.00
47330;BME280;33060;50.178;7.570;2023-02-12T05:23:30;99022.03;;;4.06;100.00
47330;BME280;33060;50.178;7.570;2023-02-12T05:25:57;99027.22;;;4.09;100.00
47330;BME280;33060;50.178;7.570;2023-02-12T05:28:25;99029.03;;;4.03;100.00
47330;BME280;33060;50.178;7.570;2023-02-12T05:30:52;99025.50;;;4.05;100.00
47330;BME280;33060;50.178;7.570;2023-02-12T05:33:18;99029.84;;;4.09;100.00
47330;BME280;33060;50.178;7.570;2023-02-12T05:35:45;99032.47;;;4.06;100.00
47330;BME280;33060;50.178;7.570;2023-02-12T05:38:12;99028.06;;;4.08;100.00
47330;BME280;33060;50.178;7.570;2023-02-12T05:40:38;99029.75;;;4.14;100.00
47330;BME280;33060;50.178;7.570;2023-02-12T05:43:05;99029.72;;;4.18;100.00
47330;BME280;33060;50.178;7.570;2023-02-12T05:45:32;99032.22;;;4.26;100.00
47330;BME280;33060;50.178;7.570;2023-02-12T05:47:58;99033.88;;;4.32;100.00
47330;BME280;33060;50.178;7.570;2023-02-12T05:50:25;99035.59;;;4.36;100.00
47330;BME280;33060;50.178;7.570;2023-02-12T05:52:59;99035.81;;;4.19;100.00
47330;BME280;33060;50.178;7.570;2023-02-12T05:55:26;99043.66;;;4.17;100.00
47330;BME280;33060;50.178;7.570;2023-02-12T05:57:53;99041.91;;;4.18;100.00
47330;BME280;33060;50.178;7.570;2023-02-12T06:00:20;99041.91;;;4.18;100.00
47330;BME280;33060;50.178;7.570;2023-02-12T06:02:47;99045.44;;;4.14;100.00
47330;BME280;33060;50.178;7.570;2023-02-12T06:05:13;99038.47;;;4.13;100.00
47330;BME280;33060;50.178;7.570;2023-02-12T06:07:40;99040.22;;;4.12;100.00
47330;BME280;33060;50.178;7.570;2023-02-12T06:10:07;99053.44;;;4.02;100.00
47330;BME280;33060;50.178;7.570;2023-02-12T06:12:34;99046.47;;;4.01;100.00
47330;BME280;33060;50.178;7.570;2023-02-12T06:15:00;99046.47;;;4.01;100.00
47330;BME280;33060;50.178;7.570;2023-02-12T06:17:27;99048.22;;;4.00;100.00
47330;BME280;33060;50.178;7.570;2023-02-12T06:19:54;99055.09;;;4.06;100.00
47330;BME280;33060;50.178;7.570;2023-02-12T06:22:20;99050.69;;;4.11;100.00
47330;BME280;33060;50.178;7.570;2023-02-12T06:24:47;99044.56;;;4.13;100.00
47330;BME280;33060;50.178;7.570;2023-02-12T06:27:13;99054.19;;;4.10;100.00
47330;BME280;33060;50.178;7.570;2023-02-12T06:29:40;99055.00;;;4.13;100.00
47330;BME280;33060;50.178;7.570;2023-02-12T06:32:07;99051.59;;;4.10;100.00
47330;BME280;33060;50.178;7.570;2023-02-12T06:34:34;99055.91;;;4.12;100.00
47330;BME280;33060;50.178;7.570;2023-02-12T06:37:00;99053.38;;;4.05;100.00
47330;BME280;33060;50.178;7.570;2023-02-12T06:39:27;99051.66;;;4.04;100.00
47330;BME280;33060;50.178;7.570;2023-02-12T06:41:54;99049.00;;;4.07;100.00
47330;BME280;33060;50.178;7.570;2023-02-12T06:44:20;99055.91;;;4.12;100.00
47330;BME280;33060;50.178;7.570;2023-02-12T06:46:47;99052.34;;;4.16;100.00
47330;BME280;33060;50.178;7.570;2023-02-12T06:49:14;99058.44;;;4.18;100.00
47330;BME280;33060;50.178;7.570;2023-02-12T06:51:41;99061.97;;;4.14;100.00
47330;BME280;33060;50.178;7.570;2023-02-12T06:54:16;99063.66;;;4.17;100.00
47330;BME280;33060;50.178;7.570;2023-02-12T06:56:43;99065.44;;;4.15;100.00
47330;BME280;33060;50.178;7.570;2023-02-12T06:59:13;99066.41;;;4.09;100.00
47330;BME280;33060;50.178;7.570;2023-02-12T07:01:40;99064.56;;;4.14;100.00
47330;BME280;33060;50.178;7.570;2023-02-12T07:04:07;99068.00;;;4.19;100.00
47330;BME280;33060;50.178;7.570;2023-02-12T07:06:34;99058.34;;;4.24;100.00
47330;BME280;33060;50.178;7.570;2023-02-12T07:09:03;99069.72;;;4.20;100.00
47330;BME280;33060;50.178;7.570;2023-02-12T07:11:32;99061.00;;;4.21;100.00
47330;BME280;33060;50.178;7.570;2023-02-12T07:14:03;99067.00;;;4.30;100.00
47330;BME280;33060;50.178;7.570;2023-02-12T07:16:29;99063.44;;;4.34;100.00
47330;BME280;33060;50.178;7.570;2023-02-12T07:18:56;99060.84;;;4.35;100.00
47330;BME280;33060;50.178;7.570;2023-02-12T07:21:23;99072.00;;;4.48;100.00
47330;BME280;33060;50.178;7.570;2023-02-12T07:23:51;99066.72;;;4.51;100.00
47330;BME280;33060;50.178;7.570;2023-02-12T07:26:19;99063.91;;;4.65;100.00
47330;BME280;33060;50.178;7.570;2023-02-12T07:28:47;99063.75;;;4.78;100.00
47330;BME280;33060;50.178;7.570;2023-02-12T07:31:19;99069.59;;;4.93;100.00
47330;BME280;33060;50.178;7.570;2023-02-12T07:33:47;99061.53;;;5.08;100.00
47330;BME280;33060;50.178;7.570;2023-02-12T07:36:16;99067.28;;;5.28;100.00
47330;BME280;33060;50.178;7.570;2023-02-12T07:38:44;99067.88;;;5.46;100.00
47330;BME280;33060;50.178;7.570;2023-02-12T07:41:21;99060.69;;;5.58;100.00
47330;BME280;33060;50.178;7.570;2023-02-12T07:43:52;99063.91;;;5.73;100.00
47330;BME280;33060;50.178;7.570;2023-02-12T07:46:25;99062.03;;;5.79;99.39
47330;BME280;33060;50.178;7.570;2023-02-12T07:49:00;99068.81;;;5.89;98.99
47330;BME280;33060;50.178;7.570;2023-02-12T07:51:28;99069.72;;;5.91;97.98
47330;BME280;33060;50.178;7.570;2023-02-12T07:53:55;99074.19;;;5.83;98.61
47330;BME280;33060;50.178;7.570;2023-02-12T07:56:24;99069.72;;;5.88;98.89
47330;BME280;33060;50.178;7.570;2023-02-12T07:58:55;99074.81;;;5.98;98.53
47330;BME280;33060;50.178;7.570;2023-02-12T08:01:29;99070.25;;;6.07;97.43
47330;BME280;33060;50.178;7.570;2023-02-12T08:03:58;99071.53;;;6.31;96.67
47330;BME280;33060;50.178;7.570;2023-02-12T08:06:28;99078.97;;;6.53;95.06
47330;BME280;33060;50.178;7.570;2023-02-12T08:08:58;99074.00;;;6.39;95.57
47330;BME280;33060;50.178;7.570;2023-02-12T08:11:26;99071.28;;;6.42;95.38
47330;BME280;33060;50.178;7.570;2023-02-12T08:13:53;99070.44;;;6.43;95.55
47330;BME280;33060;50.178;7.570;2023-02-12T08:16:22;99073.84;;;6.46;94.96
47330;BME280;33060;50.178;7.570;2023-02-12T08:18:50;99078.22;;;6.46;95.03
47330;BME280;33060;50.178;7.570;2023-02-12T08:21:23;99078.28;;;6.43;95.38
47330;BME280;33060;50.178;7.570;2023-02-12T08:23:51;99082.63;;;6.44;95.03
47330;BME280;33060;50.178;7.570;2023-02-12T08:26:38;99076.88;;;6.27;95.65
47330;BME280;33060;50.178;7.570;2023-02-12T08:29:07;99082.16;;;6.23;95.72
47330;BME280;33060;50.178;7.570;2023-02-12T08:31:37;99085.78;;;6.18;96.97
47330;BME280;33060;50.178;7.570;2023-02-12T08:34:04;99083.88;;;6.26;97.00
47330;BME280;33060;50.178;7.570;2023-02-12T08:36:38;99085.53;;;6.30;96.17
47330;BME280;33060;50.178;7.570;2023-02-12T08:39:06;99085.34;;;6.39;95.32
47330;BME280;33060;50.178;7.570;2023-02-12T08:41:34;99084.81;;;6.64;94.31
47330;BME280;33060;50.178;7.570;2023-02-12T08:44:02;99086.75;;;6.56;94.16
47330;BME280;33060;50.178;7.570;2023-02-12T08:46:32;99089.44;;;6.53;94.49
47330;BME280;33060;50.178;7.570;2023-02-12T08:49:05;99088.66;;;6.47;94.39
47330;BME280;33060;50.178;7.570;2023-02-12T08:51:33;99083.84;;;6.69;95.27
47330;BME280;33060;50.178;7.570;2023-02-12T08:54:04;99087.47;;;7.01;92.37
47330;BME280;33060;50.178;7.570;2023-02-12T08:56:32;99088.41;;;6.98;91.57
47330;BME280;33060;50.178;7.570;2023-02-12T08:59:00;99084.97;;;6.96;92.05
47330;BME280;33060;50.178;7.570;2023-02-12T09:01:31;99079.69;;;6.98;91.78
47330;BME280;33060;50.178;7.570;2023-02-12T09:03:59;99078.44;;;7.14;91.23
47330;BME280;33060;50.178;7.570;2023-02-12T09:06:26;99079.16;;;7.19;91.66
47330;BME280;33060;50.178;7.570;2023-02-12T09:08:54;99081.88;;;7.52;90.84
47330;BME280;33060;50.178;7.570;2023-02-12T09:11:23;99085.31;;;7.54;88.75
47330;BME280;33060;50.178;7.570;2023-02-12T09:14:01;99089.56;;;7.24;89.81
47330;BME280;33060;50.178;7.570;2023-02-12T09:16:30;99095.81;;;7.18;90.45
47330;BME280;33060;50.178;7.570;2023-02-12T09:18:57;99096.84;;;7.13;89.80
47330;BME280;33060;50.178;7.570;2023-02-12T09:21:24;99097.41;;;7.25;90.79
47330;BME280;33060;50.178;7.570;2023-02-12T09:23:51;99093.97;;;7.23;89.47
47330;BME280;33060;50.178;7.570;2023-02-12T09:26:20;99090.56;;;7.54;88.99
47330;BME280;33060;50.178;7.570;2023-02-12T09:28:48;99099.84;;;7.33;88.26
47330;BME280;33060;50.178;7.570;2023-02-12T09:31:27;99096.28;;;7.35;89.31
47330;BME280;33060;50.178;7.570;2023-02-12T09:33:58;99101.16;;;7.15;90.25
47330;BME280;33060;50.178;7.570;2023-02-12T09:36:25;99108.19;;;7.13;90.14
47330;BME280;33060;50.178;7.570;2023-02-12T09:38:51;99106.69;;;7.01;90.87
47330;BME280;33060;50.178;7.570;2023-02-12T09:41:59;99110.81;;;7.13;91.20
47330;BME280;33060;50.178;7.570;2023-02-12T09:44:45;99109.44;;;6.97;93.57
47330;BME280;33060;50.178;7.570;2023-02-12T09:47:26;99111.13;;;6.99;93.34
47330;BME280;33060;50.178;7.570;2023-02-12T09:52:41;99108.72;;;6.90;93.45
47330;BME280;33060;50.178;7.570;2023-02-12T09:55:14;99106.78;;;6.98;94.06
47330;BME280;33060;50.178;7.570;2023-02-12T09:57:41;99113.84;;;6.95;94.95
47330;BME280;33060;50.178;7.570;2023-02-12T10:00:14;99117.81;;;7.14;93.48
47330;BME280;33060;50.178;7.570;2023-02-12T10:02:41;99112.38;;;7.22;92.57
47330;BME280;33060;50.178;7.570;2023-02-12T10:05:35;99106.09;;;7.27;92.33
47330;BME280;33060;50.178;7.570;2023-02-12T10:11:42;99102.63;;;7.27;91.78
47330;BME280;33060;50.178;7.570;2023-02-12T10:17:02;99112.28;;;7.25;93.52
47330;BME280;33060;50.178;7.570;2023-02-12T10:27:50;99123.00;;;7.16;92.32
47330;BME280;33060;50.178;7.570;2023-02-12T10:30:21;99116.84;;;7.17;92.59
47330;BME280;33060;50.178;7.570;2023-02-12T10:32:53;99118.72;;;7.12;93.50
47330;BME280;33060;50.178;7.570;2023-02-12T10:35:24;99124.69;;;7.18;93.61
47330;BME280;33060;50.178;7.570;2023-02-12T10:40:27;99122.22;;;7.49;91.39
47330;BME280;33060;50.178;7.570;2023-02-12T10:42:56;99117.97;;;7.44;90.84
47330;BME280;33060;50.178;7.570;2023-02-12T10:48:03;99119.34;;;7.58;90.27
47330;BME280;33060;50.178;7.570;2023-02-12T10:50:43;99117.47;;;7.63;89.62
47330;BME280;33060;50.178;7.570;2023-02-12T10:53:19;99116.72;;;7.58;89.17
47330;BME280;33060;50.178;7.570;2023-02-12T10:55:46;99118.53;;;7.56;90.40
47330;BME280;33060;50.178;7.570;2023-02-12T10:58:19;99107.81;;;7.64;90.46
47330;BME280;33060;50.178;7.570;2023-02-12T11:00:55;99109.34;;;7.73;89.05
47330;BME280;33060;50.178;7.570;2023-02-12T11:03:27;99111.16;;;7.71;89.11
47330;BME280;33060;50.178;7.570;2023-02-12T11:05:54;99108.66;;;7.66;88.18
47330;BME280;33060;50.178;7.570;2023-02-12T11:10:54;99095.19;;;7.78;87.69
47330;BME280;33060;50.178;7.570;2023-02-12T11:13:24;99105.19;;;7.64;88.35
47330;BME280;33060;50.178;7.570;2023-02-12T11:15:52;99103.53;;;7.94;87.89
47330;BME280;33060;50.178;7.570;2023-02-12T11:18:28;99089.16;;;8.07;85.42
47330;BME280;33060;50.178;7.570;2023-02-12T11:21:09;99085.34;;;8.19;85.01
47330;BME280;33060;50.178;7.570;2023-02-12T11:23:41;99083.22;;;8.32;84.65
47330;BME280;33060;50.178;7.570;2023-02-12T11:28:59;99078.31;;;8.50;83.27
47330;BME280;33060;50.178;7.570;2023-02-12T11:31:29;99068.41;;;8.29;83.36
47330;BME280;33060;50.178;7.570;2023-02-12T11:36:41;99055.25;;;8.29;83.21
47330;BME280;33060;50.178;7.570;2023-02-12T11:39:47;99060.81;;;8.18;85.26
47330;BME280;33060;50.178;7.570;2023-02-12T11:42:23;99061.94;;;8.10;85.84
47330;BME280;33060;50.178;7.570;2023-02-12T11:44:57;99060.94;;;8.14;84.55
47330;BME280;33060;50.178;7.570;2023-02-12T11:47:31;99058.41;;;8.11;85.75
47330;BME280;33060;50.178;7.570;2023-02-12T11:52:31;99061.91;;;8.11;85.97
47330;BME280;33060;50.178;7.570;2023-02-12T11:55:04;99051.22;;;8.16;85.26
47330;BME280;33060;50.178;7.570;2023-02-12T12:00:13;99054.97;;;8.09;86.23
47330;BME280;33060;50.178;7.570;2023-02-12T12:05:21;99051.69;;;7.99;86.13
47330;BME280;33060;50.178;7.570;2023-02-12T12:07:54;99052.34;;;8.07;85.72
47330;BME280;33060;50.178;7.570;2023-02-12T12:10:33;99044.84;;;8.25;84.45
47330;BME280;33060;50.178;7.570;2023-02-12T12:13:12;99048.75;;;8.11;84.54
47330;BME280;33060;50.178;7.570;2023-02-12T12:15:47;99044.41;;;8.10;84.65
47330;BME280;33060;50.178;7.570;2023-02-12T12:19:04;99047.69;;;7.86;85.63
47330;BME280;33060;50.178;7.570;2023-02-12T12:22:04;99047.50;;;7.93;84.56
47330;BME280;33060;50.178;7.570;2023-02-12T12:24:40;99034.25;;;7.97;84.69
47330;BME280;33060;50.178;7.570;2023-02-12T12:27:19;99044.00;;;7.93;85.33
47330;BME280;33060;50.178;7.570;2023-02-12T12:33:05;99039.97;;;7.80;86.15
47330;BME280;33060;50.178;7.570;2023-02-12T12:36:04;99037.34;;;7.80;86.00
47330;BME280;33060;50.178;7.570;2023-02-12T12:39:02;99030.50;;;8.05;83.91
47330;BME280;33060;50.178;7.570;2023-02-12T12:41:44;99032.38;;;8.02;85.16
47330;BME280;33060;50.178;7.570;2023-02-12T12:44:31;99033.41;;;7.96;85.14
47330;BME280;33060;50.178;7.570;2023-02-12T12:49:53;99030.81;;;7.94;85.96
47330;BME280;33060;50.178;7.570;2023-02-12T13:05:57;99029.06;;;7.95;84.15
47330;BME280;33060;50.178;7.570;2023-02-12T13:08:33;99014.09;;;7.97;83.71
47330;BME280;33060;50.178;7.570;2023-02-12T13:13:43;98995.84;;;8.22;82.60
47330;BME280;33060;50.178;7.570;2023-02-12T13:16:27;98999.84;;;8.37;82.45
47330;BME280;33060;50.178;7.570;2023-02-12T13:19:06;99003.75;;;8.22;82.33
47330;BME280;33060;50.178;7.570;2023-02-12T13:26:54;98995.59;;;8.31;82.93
47330;BME280;33060;50.178;7.570;2023-02-12T13:31:57;98994.34;;;8.13;82.85
47330;BME280;33060;50.178;7.570;2023-02-12T13:34:28;98991.28;;;8.29;82.63
47330;BME280;33060;50.178;7.570;2023-02-12T13:36:59;98990.91;;;8.11;83.38
47330;BME280;33060;50.178;7.570;2023-02-12T13:39:31;98991.63;;;8.16;83.13
47330;BME280;33060;50.178;7.570;2023-02-12T13:47:28;98986.84;;;8.31;82.72
47330;BME280;33060;50.178;7.570;2023-02-12T13:50:22;98979.63;;;8.39;82.88
47330;BME280;33060;50.178;7.570;2023-02-12T13:52:58;98981.28;;;8.41;81.70
47330;BME280;33060;50.178;7.570;2023-02-12T13:55:34;98979.16;;;8.54;81.40
47330;BME280;33060;50.178;7.570;2023-02-12T14:01:00;98972.78;;;8.32;82.09
47330;BME280;33060;50.178;7.570;2023-02-12T14:03:28;98981.31;;;8.40;83.12
47330;BME280;33060;50.178;7.570;2023-02-12T14:06:18;98976.06;;;8.40;82.48
47330;BME280;33060;50.178;7.570;2023-02-12T14:08:52;98978.84;;;8.34;82.42
47330;BME280;33060;50.178;7.570;2023-02-12T14:11:22;98972.69;;;8.36;82.19
47330;BME280;33060;50.178;7.570;2023-02-12T14:13:56;98971.34;;;8.21;82.42
47330;BME280;33060;50.178;7.570;2023-02-12T14:22:02;98964.88;;;8.32;82.93
47330;BME280;33060;50.178;7.570;2023-02-12T14:27:06;98963.59;;;8.17;83.45
47330;BME280;33060;50.178;7.570;2023-02-12T14:35:40;98967.09;;;8.17;83.84
47330;BME280;33060;50.178;7.570;2023-02-12T14:40:45;98968.72;;;8.21;83.90
47330;BME280;33060;50.178;7.570;2023-02-12T14:43:45;98963.28;;;8.28;83.58
47330;BME280;33060;50.178;7.570;2023-02-12T14:48:55;98973.09;;;8.21;83.39
47330;BME280;33060;50.178;7.570;2023-02-12T14:51:42;98971.38;;;8.20;83.44
47330;BME280;33060;50.178;7.570;2023-02-12T14:54:15;98966.31;;;8.14;84.10
47330;BME280;33060;50.178;7.570;2023-02-12T14:56:46;98967.53;;;8.02;84.06
47330;BME280;33060;50.178;7.570;2023-02-12T14:59:17;98970.13;;;8.04;84.94
47330;BME280;33060;50.178;7.570;2023-02-12T15:01:46;98962.97;;;8.09;85.13
47330;BME280;33060;50.178;7.570;2023-02-12T15:04:23;98963.56;;;8.18;84.69
47330;BME280;33060;50.178;7.570;2023-02-12T15:06:55;98960.47;;;8.04;83.74
47330;BME280;33060;50.178;7.570;2023-02-12T15:09:31;98963.09;;;8.04;84.80
47330;BME280;33060;50.178;7.570;2023-02-12T15:12:09;98968.94;;;8.14;84.05
47330;BME280;33060;50.178;7.570;2023-02-12T15:14:44;98960.50;;;8.03;84.74
47330;BME280;33060;50.178;7.570;2023-02-12T15:17:20;98962.97;;;8.09;84.02
47330;BME280;33060;50.178;7.570;2023-02-12T15:19:59;98968.06;;;8.13;84.15
47330;BME280;33060;50.178;7.570;2023-02-12T15:22:32;98960.41;;;8.06;84.06
47330;BME280;33060;50.178;7.570;2023-02-12T15:25:33;98964.84;;;8.04;84.87
47330;BME280;33060;50.178;7.570;2023-02-12T15:28:24;98961.28;;;8.06;84.22
47330;BME280;33060;50.178;7.570;2023-02-12T15:30:56;98967.47;;;8.04;84.63
47330;BME280;33060;50.178;7.570;2023-02-12T15:33:28;98951.88;;;7.98;84.75
47330;BME280;33060;50.178;7.570;2023-02-12T15:35:56;98955.63;;;7.89;85.73
47330;BME280;33060;50.178;7.570;2023-02-12T15:38:38;98968.72;;;7.92;85.78
47330;BME280;33060;50.178;7.570;2023-02-12T15:41:08;98966.09;;;7.90;85.74
47330;BME280;33060;50.178;7.570;2023-02-12T15:43:48;98959.13;;;7.91;85.25
47330;BME280;33060;50.178;7.570;2023-02-12T15:46:16;98961.75;;;7.91;85.56
47330;BME280;33060;50.178;7.570;2023-02-12T15:48:43;98956.75;;;7.82;86.14
47330;BME280;33060;50.178;7.570;2023-02-12T15:51:32;98954.34;;;7.74;86.28
47330;BME280;33060;50.178;7.570;2023-02-12T15:54:04;98948.88;;;7.80;86.01
47330;BME280;33060;50.178;7.570;2023-02-12T15:56:33;98950.69;;;7.78;86.33
47330;BME280;33060;50.178;7.570;2023-02-12T15:59:02;98953.69;;;7.66;87.52